sensor_id;sensor_type;location;lat;lon;timestamp;P1;durP1;ratioP1;P2;durP2;ratioP2
6113;SDS011;3087;48.392;10.836;2023-02-15T00:01:52;49.13;;;14.23;;
6113;SDS011;3087;48.392;10.836;2023-02-15T00:04:22;68.90;;;14.73;;
6113;SDS011;3087;48.392;10.836;2023-02-15T00:06:49;131.23;;;16.20;;
6113;SDS011;3087;48.392;10.836;2023-02-15T00:09:15;40.47;;;13.03;;
6113;SDS011;3087;48.392;10.836;2023-02-15T00:11:42;94.73;;;15.33;;
6113;SDS011;3087;48.392;10.836;2023-02-15T00:14:11;34.40;;;13.70;;
6113;SDS011;3087;48.392;10.836;2023-02-15T00:16:45;49.50;;;13.53;;
6113;SDS011;3087;48.392;10.836;2023-02-15T00:19:14;100.37;;;14.87;;
6113;SDS011;3087;48.392;10.836;2023-02-15T00:21:42;94.77;;;15.70;;
6113;SDS011;3087;48.392;10.836;2023-02-15T00:24:12;68.47;;;14.73;;
6113;SDS011;3087;48.392;10.836;2023-02-15T00:26:41;63.57;;;14.57;;
6113;SDS011;3087;48.392;10.836;2023-02-15T00:29:09;118.20;;;15.30;;
6113;SDS011;3087;48.392;10.836;2023-02-15T00:31:37;79.23;;;13.73;;
6113;SDS011;3087;48.392;10.836;2023-02-15T00:34:05;43.27;;;12.30;;
6113;SDS011;3087;48.392;10.836;2023-02-15T00:36:36;35.50;;;11.20;;
6113;SDS011;3087;48.392;10.836;2023-02-15T00:39:03;247.47;;;21.23;;
6113;SDS011;3087;48.392;10.836;2023-02-15T00:41:31;16.63;;;10.83;;
6113;SDS011;3087;48.392;10.836;2023-02-15T00:44:00;99.23;;;13.33;;
6113;SDS011;3087;48.392;10.836;2023-02-15T00:46:27;67.43;;;13.57;;
6113;SDS011;3087;48.392;10.836;2023-02-15T00:48:55;56.73;;;14.53;;
6113;SDS011;3087;48.392;10.836;2023-02-15T00:51:22;64.47;;;13.77;;
6113;SDS011;3087;48.392;10.836;2023-02-15T00:53:52;39.17;;;12.93;;
6113;SDS011;3087;48.392;10.836;2023-02-15T00:56:20;89.00;;;15.27;;
6113;SDS011;3087;48.392;10.836;2023-02-15T00:58:47;129.60;;;16.37;;
6113;SDS011;3087;48.392;10.836;2023-02-15T01:01:15;109.33;;;15.37;;
6113;SDS011;3087;48.392;10.836;2023-02-15T01:03:43;132.03;;;16.60;;
6113;SDS011;3087;48.392;10.836;2023-02-15T01:06:13;98.47;;;16.70;;
6113;SDS011;3087;48.392;10.836;2023-02-15T01:08:48;26.73;;;12.00;;
6113;SDS011;3087;48.392;10.836;2023-02-15T01:11:15;109.30;;;16.40;;
6113;SDS011;3087;48.392;10.836;2023-02-15T01:13:51;51.27;;;12.40;;
6113;SDS011;3087;48.392;10.836;2023-02-15T01:16:31;20.90;;;11.27;;
6113;SDS011;3087;48.392;10.836;2023-02-15T01:18:58;20.23;;;12.07;;
6113;SDS011;3087;48.392;10.836;2023-02-15T01:21:31;46.43;;;13.50;;
6113;SDS011;3087;48.392;10.836;2023-02-15T01:24:01;14.40;;;10.80;;
6113;SDS011;3087;48.392;10.836;2023-02-15T01:26:30;12.47;;;9.67;;
6113;SDS011;3087;48.392;10.836;2023-02-15T01:28:56;12.97;;;11.13;;
6113;SDS011;3087;48.392;10.836;2023-02-15T01:31:22;13.17;;;10.57;;
6113;SDS011;3087;48.392;10.836;2023-02-15T01:33:49;25.23;;;11.90;;
6113;SDS011;3087;48.392;10.836;2023-02-15T01:36:17;26.03;;;10.90;;
6113;SDS011;3087;48.392;10.836;2023-02-15T01:38:43;29.43;;;11.63;;
6113;SDS011;3087;48.392;10.836;2023-02-15T01:41:20;28.23;;;10.93;;
6113;SDS011;3087;48.392;10.836;2023-02-15T01:43:56;14.23;;;9.83;;
6113;SDS011;3087;48.392;10.836;2023-02-15T01:46:31;11.83;;;9.77;;
6113;SDS011;3087;48.392;10.836;2023-02-15T01:49:22;49.63;;;12.30;;
6113;SDS011;3087;48.392;10.836;2023-02-15T01:51:54;93.43;;;15.43;;
6113;SDS011;3087;48.392;10.836;2023-02-15T01:54:22;123.00;;;14.90;;
6113;SDS011;3087;48.392;10.836;2023-02-15T01:56:56;80.13;;;14.47;;
6113;SDS011;3087;48.392;10.836;2023-02-15T01:59:27;142.00;;;15.80;;
6113;SDS011;3087;48.392;10.836;2023-02-15T02:01:57;110.20;;;14.70;;
6113;SDS011;3087;48.392;10.836;2023-02-15T02:04:26;51.33;;;12.70;;
6113;SDS011;3087;48.392;10.836;2023-02-15T02:07:07;88.93;;;13.03;;
6113;SDS011;3087;48.392;10.836;2023-02-15T02:09:35;51.47;;;12.50;;
6113;SDS011;3087;48.392;10.836;2023-02-15T02:12:02;80.40;;;13.33;;
6113;SDS011;3087;48.392;10.836;2023-02-15T02:14:30;85.30;;;13.83;;
6113;SDS011;3087;48.392;10.836;2023-02-15T02:17:00;11.97;;;8.87;;
6113;SDS011;3087;48.392;10.836;2023-02-15T02:23:07;12.50;;;9.97;;
6113;SDS011;3087;48.392;10.836;2023-02-15T02:28:41;34.57;;;11.33;;
6113;SDS011;3087;48.392;10.836;2023-02-15T02:31:43;29.93;;;11.33;;
6113;SDS011;3087;48.392;10.836;2023-02-15T02:34:33;47.20;;;13.57;;
6113;SDS011;3087;48.392;10.836;2023-02-15T02:37:08;58.03;;;13.33;;
6113;SDS011;3087;48.392;10.836;2023-02-15T02:45:22;39.90;;;10.93;;
6113;SDS011;3087;48.392;10.836;2023-02-15T02:48:30;67.90;;;13.53;;
6113;SDS011;3087;48.392;10.836;2023-02-15T02:50:57;50.67;;;12.47;;
6113;SDS011;3087;48.392;10.836;2023-02-15T02:53:34;68.53;;;13.43;;
6113;SDS011;3087;48.392;10.836;2023-02-15T02:56:44;48.13;;;13.63;;
6113;SDS011;3087;48.392;10.836;2023-02-15T02:59:19;25.57;;;11.43;;
6113;SDS011;3087;48.392;10.836;2023-02-15T03:02:01;36.53;;;11.90;;
6113;SDS011;3087;48.392;10.836;2023-02-15T03:04:35;29.53;;;12.40;;
6113;SDS011;3087;48.392;10.836;2023-02-15T03:07:10;17.57;;;11.60;;
6113;SDS011;3087;48.392;10.836;2023-02-15T03:09:44;17.67;;;11.93;;
6113;SDS011;3087;48.392;10.836;2023-02-15T03:12:16;50.70;;;12.53;;
6113;SDS011;3087;48.392;10.836;2023-02-15T03:14:44;30.57;;;12.57;;
6113;SDS011;3087;48.392;10.836;2023-02-15T03:17:20;60.37;;;13.70;;
6113;SDS011;3087;48.392;10.836;2023-02-15T03:19:48;28.47;;;11.63;;
6113;SDS011;3087;48.392;10.836;2023-02-15T03:22:18;12.83;;;9.63;;
6113;SDS011;3087;48.392;10.836;2023-02-15T03:24:55;14.53;;;10.53;;
6113;SDS011;3087;48.392;10.836;2023-02-15T03:27:37;59.57;;;13.30;;
6113;SDS011;3087;48.392;10.836;2023-02-15T03:30:07;26.57;;;10.60;;
6113;SDS011;3087;48.392;10.836;2023-02-15T03:32:35;101.83;;;14.03;;
6113;SDS011;3087;48.392;10.836;2023-02-15T03:35:02;63.13;;;14.13;;
6113;SDS011;3087;48.392;10.836;2023-02-15T03:37:32;63.67;;;13.87;;
6113;SDS011;3087;48.392;10.836;2023-02-15T03:40:21;52.80;;;13.90;;
6113;SDS011;3087;48.392;10.836;2023-02-15T03:43:16;72.47;;;14.03;;
6113;SDS011;3087;48.392;10.836;2023-02-15T03:45:47;27.43;;;11.20;;
6113;SDS011;3087;48.392;10.836;2023-02-15T03:48:26;54.17;;;14.13;;
6113;SDS011;3087;48.392;10.836;2023-02-15T03:50:58;17.90;;;10.57;;
6113;SDS011;3087;48.392;10.836;2023-02-15T03:53:48;51.40;;;12.20;;
6113;SDS011;3087;48.392;10.836;2023-02-15T03:56:15;151.97;;;17.00;;
6113;SDS011;3087;48.392;10.836;2023-02-15T03:58:40;48.43;;;12.77;;
6113;SDS011;3087;48.392;10.836;2023-02-15T04:01:35;46.73;;;13.47;;
6113;SDS011;3087;48.392;10.836;2023-02-15T04:04:22;29.20;;;11.93;;
6113;SDS011;3087;48.392;10.836;2023-02-15T04:06:49;68.40;;;13.27;;
6113;SDS011;3087;48.392;10.836;2023-02-15T04:09:14;47.53;;;11.63;;
6113;SDS011;3087;48.392;10.836;2023-02-15T04:11:58;34.50;;;10.63;;
6113;SDS011;3087;48.392;10.836;2023-02-15T04:14:24;156.07;;;15.30;;
6113;SDS011;3087;48.392;10.836;2023-02-15T04:17:09;25.47;;;11.40;;
6113;SDS011;3087;48.392;10.836;2023-02-15T04:19:35;45.37;;;13.40;;
6113;SDS011;3087;48.392;10.836;2023-02-15T04:22:19;86.37;;;16.13;;
6113;SDS011;3087;48.392;10.836;2023-02-15T04:25:04;44.20;;;12.53;;
6113;SDS011;3087;48.392;10.836;2023-02-15T04:27:40;20.90;;;11.37;;
6113;SDS011;3087;48.392;10.836;2023-02-15T04:30:08;86.77;;;13.63;;
6113;SDS011;3087;48.392;10.836;2023-02-15T04:32:36;93.47;;;14.20;;
6113;SDS011;3087;48.392;10.836;2023-02-15T04:35:02;122.10;;;15.13;;
6113;SDS011;3087;48.392;10.836;2023-02-15T04:37:30;47.73;;;12.63;;
6113;SDS011;3087;48.392;10.836;2023-02-15T04:39:56;39.70;;;12.03;;
6113;SDS011;3087;48.392;10.836;2023-02-15T04:42:23;56.00;;;13.17;;
6113;SDS011;3087;48.392;10.836;2023-02-15T04:44:50;21.33;;;10.40;;
6113;SDS011;3087;48.392;10.836;2023-02-15T04:47:15;43.60;;;12.50;;
6113;SDS011;3087;48.392;10.836;2023-02-15T04:49:41;49.03;;;12.50;;
6113;SDS011;3087;48.392;10.836;2023-02-15T04:52:06;36.47;;;11.37;;
6113;SDS011;3087;48.392;10.836;2023-02-15T04:54:32;12.73;;;9.17;;
6113;SDS011;3087;48.392;10.836;2023-02-15T04:56:58;65.43;;;12.17;;
6113;SDS011;3087;48.392;10.836;2023-02-15T04:59:23;17.77;;;10.87;;
6113;SDS011;3087;48.392;10.836;2023-02-15T05:01:49;20.37;;;10.43;;
6113;SDS011;3087;48.392;10.836;2023-02-15T05:04:15;24.53;;;10.77;;
6113;SDS011;3087;48.392;10.836;2023-02-15T05:06:40;23.70;;;11.47;;
6113;SDS011;3087;48.392;10.836;2023-02-15T05:09:06;15.43;;;10.53;;
6113;SDS011;3087;48.392;10.836;2023-02-15T05:11:31;34.37;;;13.07;;
6113;SDS011;3087;48.392;10.836;2023-02-15T05:13:57;20.20;;;11.57;;
6113;SDS011;3087;48.392;10.836;2023-02-15T05:16:23;24.90;;;11.33;;
6113;SDS011;3087;48.392;10.836;2023-02-15T05:18:48;21.87;;;11.47;;
6113;SDS011;3087;48.392;10.836;2023-02-15T05:21:14;34.93;;;12.97;;
6113;SDS011;3087;48.392;10.836;2023-02-15T05:23:41;25.63;;;12.17;;
6113;SDS011;3087;48.392;10.836;2023-02-15T05:26:09;35.43;;;12.03;;
6113;SDS011;3087;48.392;10.836;2023-02-15T05:28:59;45.97;;;14.13;;
6113;SDS011;3087;48.392;10.836;2023-02-15T05:31:24;62.47;;;14.17;;
6113;SDS011;3087;48.392;10.836;2023-02-15T05:33:50;57.27;;;12.23;;
6113;SDS011;3087;48.392;10.836;2023-02-15T05:36:16;23.87;;;12.50;;
6113;SDS011;3087;48.392;10.836;2023-02-15T05:38:41;35.67;;;13.63;;
6113;SDS011;3087;48.392;10.836;2023-02-15T05:41:07;53.43;;;14.13;;
6113;SDS011;3087;48.392;10.836;2023-02-15T05:43:34;66.03;;;14.37;;
6113;SDS011;3087;48.392;10.836;2023-02-15T05:46:00;52.03;;;13.13;;
6113;SDS011;3087;48.392;10.836;2023-02-15T05:48:26;120.37;;;16.80;;
6113;SDS011;3087;48.392;10.836;2023-02-15T05:51:02;42.30;;;14.13;;
6113;SDS011;3087;48.392;10.836;2023-02-15T05:53:30;14.63;;;11.00;;
6113;SDS011;3087;48.392;10.836;2023-02-15T05:55:57;48.90;;;14.23;;
6113;SDS011;3087;48.392;10.836;2023-02-15T05:58:28;61.17;;;14.40;;
6113;SDS011;3087;48.392;10.836;2023-02-15T06:00:55;52.43;;;14.93;;
6113;SDS011;3087;48.392;10.836;2023-02-15T06:03:21;41.10;;;15.90;;
6113;SDS011;3087;48.392;10.836;2023-02-15T06:05:48;30.57;;;14.73;;
6113;SDS011;3087;48.392;10.836;2023-02-15T06:08:14;48.57;;;15.20;;
6113;SDS011;3087;48.392;10.836;2023-02-15T06:10:40;57.70;;;16.20;;
6113;SDS011;3087;48.392;10.836;2023-02-15T06:13:06;42.33;;;13.57;;
6113;SDS011;3087;48.392;10.836;2023-02-15T06:15:31;23.73;;;12.80;;
6113;SDS011;3087;48.392;10.836;2023-02-15T06:17:57;25.50;;;13.20;;
6113;SDS011;3087;48.392;10.836;2023-02-15T06:20:23;32.93;;;14.07;;
6113;SDS011;3087;48.392;10.836;2023-02-15T06:22:48;47.53;;;15.80;;
6113;SDS011;3087;48.392;10.836;2023-02-15T06:25:14;49.97;;;13.63;;
6113;SDS011;3087;48.392;10.836;2023-02-15T06:27:42;42.53;;;14.90;;
6113;SDS011;3087;48.392;10.836;2023-02-15T06:30:09;51.10;;;14.43;;
6113;SDS011;3087;48.392;10.836;2023-02-15T06:32:35;37.47;;;13.93;;
6113;SDS011;3087;48.392;10.836;2023-02-15T06:35:01;22.47;;;12.20;;
6113;SDS011;3087;48.392;10.836;2023-02-15T06:37:26;65.10;;;15.73;;
6113;SDS011;3087;48.392;10.836;2023-02-15T06:39:52;52.60;;;26.20;;
6113;SDS011;3087;48.392;10.836;2023-02-15T06:42:18;46.30;;;18.47;;
6113;SDS011;3087;48.392;10.836;2023-02-15T06:44:44;34.37;;;14.20;;
6113;SDS011;3087;48.392;10.836;2023-02-15T06:47:09;24.90;;;14.83;;
6113;SDS011;3087;48.392;10.836;2023-02-15T06:49:36;57.37;;;15.90;;
6113;SDS011;3087;48.392;10.836;2023-02-15T06:52:02;31.77;;;12.97;;
6113;SDS011;3087;48.392;10.836;2023-02-15T06:54:28;67.07;;;14.10;;
6113;SDS011;3087;48.392;10.836;2023-02-15T06:56:54;30.33;;;12.57;;
6113;SDS011;3087;48.392;10.836;2023-02-15T06:59:19;75.27;;;16.33;;
6113;SDS011;3087;48.392;10.836;2023-02-15T07:01:45;18.00;;;11.97;;
6113;SDS011;3087;48.392;10.836;2023-02-15T07:04:11;49.07;;;14.73;;
6113;SDS011;3087;48.392;10.836;2023-02-15T07:06:36;46.83;;;14.63;;
6113;SDS011;3087;48.392;10.836;2023-02-15T07:09:02;54.07;;;15.40;;
6113;SDS011;3087;48.392;10.836;2023-02-15T07:11:30;71.67;;;15.03;;
6113;SDS011;3087;48.392;10.836;2023-02-15T07:14:14;49.17;;;14.53;;
6113;SDS011;3087;48.392;10.836;2023-02-15T07:16:40;31.23;;;12.87;;
6113;SDS011;3087;48.392;10.836;2023-02-15T07:19:05;24.37;;;13.13;;
6113;SDS011;3087;48.392;10.836;2023-02-15T07:21:32;30.17;;;16.77;;
6113;SDS011;3087;48.392;10.836;2023-02-15T07:23:58;60.23;;;22.57;;
6113;SDS011;3087;48.392;10.836;2023-02-15T07:26:24;32.40;;;13.30;;
6113;SDS011;3087;48.392;10.836;2023-02-15T07:28:50;25.53;;;13.17;;
6113;SDS011;3087;48.392;10.836;2023-02-15T07:31:16;58.83;;;15.60;;
6113;SDS011;3087;48.392;10.836;2023-02-15T07:33:41;26.37;;;14.23;;
6113;SDS011;3087;48.392;10.836;2023-02-15T07:36:07;31.60;;;13.57;;
6113;SDS011;3087;48.392;10.836;2023-02-15T07:38:36;29.00;;;13.60;;
6113;SDS011;3087;48.392;10.836;2023-02-15T07:41:07;20.43;;;13.03;;
6113;SDS011;3087;48.392;10.836;2023-02-15T07:43:35;25.87;;;13.13;;
6113;SDS011;3087;48.392;10.836;2023-02-15T07:46:03;24.77;;;13.17;;
6113;SDS011;3087;48.392;10.836;2023-02-15T07:48:32;17.73;;;12.93;;
6113;SDS011;3087;48.392;10.836;2023-02-15T07:50:59;17.93;;;13.33;;
6113;SDS011;3087;48.392;10.836;2023-02-15T07:53:25;18.23;;;13.53;;
6113;SDS011;3087;48.392;10.836;2023-02-15T07:55:51;16.93;;;12.67;;
6113;SDS011;3087;48.392;10.836;2023-02-15T08:01:18;15.90;;;11.87;;
6113;SDS011;3087;48.392;10.836;2023-02-15T08:03:47;18.37;;;13.03;;
6113;SDS011;3087;48.392;10.836;2023-02-15T08:06:13;21.27;;;14.20;;
6113;SDS011;3087;48.392;10.836;2023-02-15T08:08:39;25.97;;;15.30;;
6113;SDS011;3087;48.392;10.836;2023-02-15T08:11:06;30.93;;;14.47;;
6113;SDS011;3087;48.392;10.836;2023-02-15T08:21:32;18.30;;;13.37;;
6113;SDS011;3087;48.392;10.836;2023-02-15T08:23:59;25.10;;;14.27;;
6113;SDS011;3087;48.392;10.836;2023-02-15T08:26:31;21.33;;;13.50;;
6113;SDS011;3087;48.392;10.836;2023-02-15T08:28:58;21.50;;;13.47;;
6113;SDS011;3087;48.392;10.836;2023-02-15T08:31:29;15.43;;;12.57;;
6113;SDS011;3087;48.392;10.836;2023-02-15T08:33:55;20.83;;;13.40;;
6113;SDS011;3087;48.392;10.836;2023-02-15T08:36:24;18.83;;;13.07;;
6113;SDS011;3087;48.392;10.836;2023-02-15T08:38:52;29.03;;;14.27;;
6113;SDS011;3087;48.392;10.836;2023-02-15T08:41:21;14.53;;;11.57;;
6113;SDS011;3087;48.392;10.836;2023-02-15T08:43:53;16.07;;;12.37;;
6113;SDS011;3087;48.392;10.836;2023-02-15T08:46:20;19.77;;;13.83;;
6113;SDS011;3087;48.392;10.836;2023-02-15T08:48:47;35.10;;;17.87;;
6113;SDS011;3087;48.392;10.836;2023-02-15T08:51:20;24.70;;;15.67;;
6113;SDS011;3087;48.392;10.836;2023-02-15T08:53:47;28.50;;;15.30;;
6113;SDS011;3087;48.392;10.836;2023-02-15T08:56:15;23.10;;;15.63;;
6113;SDS011;3087;48.392;10.836;2023-02-15T08:58:42;23.67;;;16.00;;
6113;SDS011;3087;48.392;10.836;2023-02-15T09:01:09;22.43;;;15.60;;
6113;SDS011;3087;48.392;10.836;2023-02-15T09:03:42;24.53;;;15.47;;
6113;SDS011;3087;48.392;10.836;2023-02-15T09:06:09;20.50;;;14.67;;
6113;SDS011;3087;48.392;10.836;2023-02-15T09:08:47;26.03;;;15.30;;
6113;SDS011;3087;48.392;10.836;2023-02-15T09:11:14;28.07;;;17.10;;
6113;SDS011;3087;48.392;10.836;2023-02-15T09:13:52;22.13;;;15.93;;
6113;SDS011;3087;48.392;10.836;2023-02-15T09:16:26;17.17;;;13.43;;
6113;SDS011;3087;48.392;10.836;2023-02-15T09:18:54;17.30;;;12.93;;
6113;SDS011;3087;48.392;10.836;2023-02-15T09:21:22;17.60;;;13.33;;
6113;SDS011;3087;48.392;10.836;2023-02-15T09:23:57;18.07;;;14.23;;
6113;SDS011;3087;48.392;10.836;2023-02-15T09:26:25;26.40;;;14.83;;
6113;SDS011;3087;48.392;10.836;2023-02-15T09:28:53;18.87;;;15.07;;
6113;SDS011;3087;48.392;10.836;2023-02-15T09:31:25;16.83;;;12.60;;
6113;SDS011;3087;48.392;10.836;2023-02-15T09:33:52;18.63;;;14.07;;
6113;SDS011;3087;48.392;10.836;2023-02-15T09:39:18;21.97;;;15.73;;
6113;SDS011;3087;48.392;10.836;2023-02-15T09:44:57;16.30;;;12.90;;
6113;SDS011;3087;48.392;10.836;2023-02-15T09:50:25;16.60;;;13.83;;
6113;SDS011;3087;48.392;10.836;2023-02-15T09:58:53;17.93;;;13.37;;
6113;SDS011;3087;48.392;10.836;2023-02-15T10:04:14;18.77;;;13.03;;
6113;SDS011;3087;48.392;10.836;2023-02-15T10:26:27;16.83;;;12.33;;
6113;SDS011;3087;48.392;10.836;2023-02-15T10:29:13;15.70;;;13.20;;
6113;SDS011;3087;48.392;10.836;2023-02-15T10:31:49;12.77;;;11.40;;
6113;SDS011;3087;48.392;10.836;2023-02-15T10:37:07;14.70;;;11.30;;
6113;SDS011;3087;48.392;10.836;2023-02-15T10:50:57;17.13;;;13.63;;
6113;SDS011;3087;48.392;10.836;2023-02-15T10:53:41;15.30;;;11.70;;
6113;SDS011;3087;48.392;10.836;2023-02-15T10:56:20;16.40;;;12.33;;
6113;SDS011;3087;48.392;10.836;2023-02-15T11:07:40;15.53;;;11.67;;
6113;SDS011;3087;48.392;10.836;2023-02-15T11:12:52;14.07;;;11.60;;
6113;SDS011;3087;48.392;10.836;2023-02-15T11:15:21;14.47;;;12.23;;
6113;SDS011;3087;48.392;10.836;2023-02-15T11:17:55;15.47;;;11.73;;
6113;SDS011;3087;48.392;10.836;2023-02-15T11:20:37;12.25;;;10.82;;
6113;SDS011;3087;48.392;10.836;2023-02-15T11:23:27;15.88;;;11.50;;
6113;SDS011;3087;48.392;10.836;2023-02-15T11:26:12;24.25;;;17.65;;
6113;SDS011;3087;48.392;10.836;2023-02-15T11:28:48;15.57;;;12.55;;
6113;SDS011;3087;48.392;10.836;2023-02-15T11:31:19;12.52;;;10.27;;
6113;SDS011;3087;48.392;10.836;2023-02-15T11:33:51;11.73;;;10.52;;
6113;SDS011;3087;48.392;10.836;2023-02-15T11:36:33;12.77;;;11.07;;
6113;SDS011;3087;48.392;10.836;2023-02-15T11:39:03;16.30;;;11.95;;
6113;SDS011;3087;48.392;10.836;2023-02-15T11:41:37;14.18;;;11.32;;
6113;SDS011;3087;48.392;10.836;2023-02-15T11:46:33;13.02;;;11.63;;
6113;SDS011;3087;48.392;10.836;2023-02-15T11:48:59;15.07;;;12.13;;
6113;SDS011;3087;48.392;10.836;2023-02-15T11:51:25;12.27;;;10.88;;
6113;SDS011;3087;48.392;10.836;2023-02-15T11:53:52;14.02;;;10.95;;
6113;SDS011;3087;48.392;10.836;2023-02-15T11:56:20;13.68;;;11.73;;
6113;SDS011;3087;48.392;10.836;2023-02-15T12:01:37;13.75;;;10.20;;
6113;SDS011;3087;48.392;10.836;2023-02-15T12:09:49;15.10;;;10.98;;
6113;SDS011;3087;48.392;10.836;2023-02-15T12:12:36;10.70;;;8.88;;
6113;SDS011;3087;48.392;10.836;2023-02-15T12:15:12;12.63;;;10.10;;
6113;SDS011;3087;48.392;10.836;2023-02-15T12:17:39;12.93;;;11.63;;
6113;SDS011;3087;48.392;10.836;2023-02-15T12:22:52;13.90;;;10.73;;
6113;SDS011;3087;48.392;10.836;2023-02-15T12:25:40;12.63;;;11.32;;
6113;SDS011;3087;48.392;10.836;2023-02-15T12:28:22;15.43;;;11.63;;
6113;SDS011;3087;48.392;10.836;2023-02-15T12:30:52;15.48;;;11.55;;
6113;SDS011;3087;48.392;10.836;2023-02-15T12:33:29;13.68;;;11.10;;
6113;SDS011;3087;48.392;10.836;2023-02-15T12:35:57;13.48;;;12.07;;
6113;SDS011;3087;48.392;10.836;2023-02-15T12:38:26;13.57;;;11.68;;
6113;SDS011;3087;48.392;10.836;2023-02-15T12:41:03;16.50;;;12.63;;
6113;SDS011;3087;48.392;10.836;2023-02-15T12:43:44;15.70;;;14.00;;
6113;SDS011;3087;48.392;10.836;2023-02-15T12:51:42;15.10;;;12.25;;
6113;SDS011;3087;48.392;10.836;2023-02-15T12:56:52;16.13;;;11.65;;
6113;SDS011;3087;48.392;10.836;2023-02-15T12:59:18;13.60;;;12.20;;
6113;SDS011;3087;48.392;10.836;2023-02-15T13:01:45;13.60;;;11.60;;
6113;SDS011;3087;48.392;10.836;2023-02-15T13:06:48;17.88;;;12.40;;
6113;SDS011;3087;48.392;10.836;2023-02-15T13:12:11;14.77;;;12.27;;
6113;SDS011;3087;48.392;10.836;2023-02-15T13:14:44;14.88;;;13.30;;
6113;SDS011;3087;48.392;10.836;2023-02-15T13:17:12;15.60;;;12.50;;
6113;SDS011;3087;48.392;10.836;2023-02-15T13:19:42;17.27;;;12.95;;
6113;SDS011;3087;48.392;10.836;2023-02-15T13:22:25;16.67;;;11.90;;
6113;SDS011;3087;48.392;10.836;2023-02-15T13:27:51;13.05;;;11.65;;
6113;SDS011;3087;48.392;10.836;2023-02-15T13:30:27;14.52;;;12.10;;
6113;SDS011;3087;48.392;10.836;2023-02-15T13:32:58;15.80;;;11.85;;
6113;SDS011;3087;48.392;10.836;2023-02-15T13:35:27;21.55;;;12.40;;
6113;SDS011;3087;48.392;10.836;2023-02-15T13:40:46;14.55;;;11.90;;
6113;SDS011;3087;48.392;10.836;2023-02-15T13:44:01;14.23;;;11.70;;
6113;SDS011;3087;48.392;10.836;2023-02-15T13:46:52;16.15;;;12.13;;
6113;SDS011;3087;48.392;10.836;2023-02-15T13:52:22;15.40;;;13.40;;
6113;SDS011;3087;48.392;10.836;2023-02-15T14:14:31;18.40;;;14.02;;
6113;SDS011;3087;48.392;10.836;2023-02-15T14:22:32;17.98;;;13.93;;
6113;SDS011;3087;48.392;10.836;2023-02-15T14:30:48;19.45;;;14.60;;
6113;SDS011;3087;48.392;10.836;2023-02-15T14:33:31;17.35;;;14.00;;
6113;SDS011;3087;48.392;10.836;2023-02-15T14:36:03;20.73;;;15.10;;
6113;SDS011;3087;48.392;10.836;2023-02-15T14:41:43;19.98;;;14.80;;
6113;SDS011;3087;48.392;10.836;2023-02-15T14:44:56;18.88;;;14.80;;
6113;SDS011;3087;48.392;10.836;2023-02-15T14:47:18;23.08;;;16.70;;
6113;SDS011;3087;48.392;10.836;2023-02-15T14:49:51;20.60;;;15.18;;
6113;SDS011;3087;48.392;10.836;2023-02-15T14:52:17;21.13;;;16.20;;
6113;SDS011;3087;48.392;10.836;2023-02-15T15:02:08;20.38;;;16.95;;
6113;SDS011;3087;48.392;10.836;2023-02-15T15:04:46;19.20;;;16.17;;
6113;SDS011;3087;48.392;10.836;2023-02-15T15:25:44;27.50;;;21.70;;
6113;SDS011;3087;48.392;10.836;2023-02-15T15:31:00;28.53;;;22.53;;
6113;SDS011;3087;48.392;10.836;2023-02-15T15:40:11;29.87;;;22.93;;
6113;SDS011;3087;48.392;10.836;2023-02-15T15:49:00;28.70;;;24.77;;
6113;SDS011;3087;48.392;10.836;2023-02-15T15:51:31;31.07;;;23.93;;
6113;SDS011;3087;48.392;10.836;2023-02-15T15:53:58;26.97;;;21.83;;
6113;SDS011;3087;48.392;10.836;2023-02-15T15:56:35;31.83;;;25.50;;
6113;SDS011;3087;48.392;10.836;2023-02-15T15:59:04;31.73;;;25.57;;
6113;SDS011;3087;48.392;10.836;2023-02-15T16:01:39;30.40;;;22.67;;
6113;SDS011;3087;48.392;10.836;2023-02-15T16:04:11;29.17;;;24.20;;
6113;SDS011;3087;48.392;10.836;2023-02-15T16:06:39;34.23;;;24.67;;
6113;SDS011;3087;48.392;10.836;2023-02-15T16:09:18;32.57;;;24.23;;
6113;SDS011;3087;48.392;10.836;2023-02-15T16:11:53;32.77;;;24.27;;
6113;SDS011;3087;48.392;10.836;2023-02-15T16:14:26;33.67;;;23.87;;
6113;SDS011;3087;48.392;10.836;2023-02-15T16:16:56;32.10;;;23.90;;
6113;SDS011;3087;48.392;10.836;2023-02-15T16:19:28;29.73;;;22.70;;
6113;SDS011;3087;48.392;10.836;2023-02-15T16:21:58;29.43;;;23.77;;
6113;SDS011;3087;48.392;10.836;2023-02-15T16:29:53;31.50;;;24.83;;
6113;SDS011;3087;48.392;10.836;2023-02-15T16:32:20;30.30;;;24.10;;
6113;SDS011;3087;48.392;10.836;2023-02-15T16:34:53;34.87;;;26.67;;
6113;SDS011;3087;48.392;10.836;2023-02-15T16:37:24;34.50;;;25.60;;
6113;SDS011;3087;48.392;10.836;2023-02-15T16:39:52;35.97;;;25.67;;
6113;SDS011;3087;48.392;10.836;2023-02-15T16:42:19;36.33;;;25.77;;
6113;SDS011;3087;48.392;10.836;2023-02-15T16:44:46;29.53;;;23.17;;
6113;SDS011;3087;48.392;10.836;2023-02-15T16:47:27;28.73;;;22.60;;
6113;SDS011;3087;48.392;10.836;2023-02-15T16:49:57;28.23;;;22.37;;
6113;SDS011;3087;48.392;10.836;2023-02-15T16:52:26;25.77;;;21.33;;
6113;SDS011;3087;48.392;10.836;2023-02-15T16:55:00;30.93;;;22.60;;
6113;SDS011;3087;48.392;10.836;2023-02-15T16:57:32;29.03;;;22.97;;
6113;SDS011;3087;48.392;10.836;2023-02-15T17:00:04;30.93;;;24.50;;
6113;SDS011;3087;48.392;10.836;2023-02-15T17:02:33;27.40;;;23.07;;
6113;SDS011;3087;48.392;10.836;2023-02-15T17:05:20;38.27;;;26.40;;
6113;SDS011;3087;48.392;10.836;2023-02-15T17:10:39;34.73;;;25.53;;
6113;SDS011;3087;48.392;10.836;2023-02-15T17:13:13;28.07;;;22.20;;
6113;SDS011;3087;48.392;10.836;2023-02-15T17:15:43;30.87;;;24.03;;
6113;SDS011;3087;48.392;10.836;2023-02-15T17:18:29;32.87;;;22.17;;
6113;SDS011;3087;48.392;10.836;2023-02-15T17:20:59;25.43;;;20.63;;
6113;SDS011;3087;48.392;10.836;2023-02-15T17:23:34;32.00;;;24.07;;
6113;SDS011;3087;48.392;10.836;2023-02-15T17:26:22;29.10;;;21.97;;
6113;SDS011;3087;48.392;10.836;2023-02-15T17:28:51;23.00;;;18.77;;
6113;SDS011;3087;48.392;10.836;2023-02-15T17:31:19;26.17;;;20.43;;
6113;SDS011;3087;48.392;10.836;2023-02-15T17:33:46;26.07;;;18.97;;
6113;SDS011;3087;48.392;10.836;2023-02-15T17:41:30;26.40;;;20.97;;
6113;SDS011;3087;48.392;10.836;2023-02-15T17:43:59;24.00;;;19.43;;
6113;SDS011;3087;48.392;10.836;2023-02-15T17:46:24;24.50;;;19.13;;
6113;SDS011;3087;48.392;10.836;2023-02-15T17:48:51;29.70;;;22.90;;
6113;SDS011;3087;48.392;10.836;2023-02-15T17:51:20;28.43;;;20.90;;
6113;SDS011;3087;48.392;10.836;2023-02-15T17:53:46;31.47;;;22.27;;
6113;SDS011;3087;48.392;10.836;2023-02-15T17:56:31;32.50;;;22.20;;
6113;SDS011;3087;48.392;10.836;2023-02-15T17:59:01;28.47;;;22.27;;
6113;SDS011;3087;48.392;10.836;2023-02-15T18:01:31;24.33;;;19.97;;
6113;SDS011;3087;48.392;10.836;2023-02-15T18:04:17;22.90;;;17.37;;
6113;SDS011;3087;48.392;10.836;2023-02-15T18:07:01;21.27;;;17.23;;
6113;SDS011;3087;48.392;10.836;2023-02-15T18:09:45;23.73;;;17.97;;
6113;SDS011;3087;48.392;10.836;2023-02-15T18:12:33;23.40;;;18.27;;
6113;SDS011;3087;48.392;10.836;2023-02-15T18:15:03;21.87;;;18.10;;
6113;SDS011;3087;48.392;10.836;2023-02-15T18:17:34;25.20;;;19.43;;
6113;SDS011;3087;48.392;10.836;2023-02-15T18:20:09;24.83;;;19.83;;
6113;SDS011;3087;48.392;10.836;2023-02-15T18:22:43;24.43;;;18.80;;
6113;SDS011;3087;48.392;10.836;2023-02-15T18:25:13;23.07;;;18.87;;
6113;SDS011;3087;48.392;10.836;2023-02-15T18:27:40;21.40;;;17.83;;
6113;SDS011;3087;48.392;10.836;2023-02-15T18:30:06;23.23;;;17.70;;